»·PEaware :: N913BH KBFL-KMHV

N913BH :: KBFL-KMHV

FLIGHT INFORMATION

Flight Status: Arrived
Operator: Privately registered:
United States
More flights under this callsign
Pilot: Cody H. (16298)
Aircraft: PIPER PA-28 CHEROKEE ARCHER
(PA28)
More flights by this aircraft type
Origin: KBFL Meadows
United States
Destination: KMHV Mojave
United States
More flights between these airports :: More routes between these airports
Route: +
File this flight plan on PilotEdge
Remarks: CAT-06
Altitude:
(Current/Filed)
7,500ft
Speed:
(Current/Filed)
115kts
Departed: 08-Oct-17 04:33 PM
Arrived: 08-Oct-17 05:05 PM
Distance/Time
Traveled:
50nm/0:32
Distance/Time
To Go:
Arrived

Flight Plot

Page will automatically refresh every two minutes.


Map Options




Map Legend


Flown Route
Filed Route
Departure Airport
Arrival Airport
Navaid (VOR, NDB)
Fix

Horizontal Profiles

Position Reports

Time Latitude Longitude Heading Altitude Ground
Speed
08-Oct-17 16:26 35.426186 -119.042674 179 485ft 0kts
08-Oct-17 16:27 35.426186 -119.042674 179 485ft 0kts
08-Oct-17 16:28 35.426184 -119.042673 179 485ft 0kts
08-Oct-17 16:29 35.425500 -119.044393 254 480ft 6kts
08-Oct-17 16:30 35.425359 -119.044295 318 480ft 0kts
08-Oct-17 16:31 35.425360 -119.044296 318 480ft 0kts
08-Oct-17 16:32 35.425359 -119.044295 318 480ft 0kts
08-Oct-17 16:33 35.425485 -119.044657 268 480ft 0kts
08-Oct-17 16:34 35.425485 -119.044657 268 480ft 0kts
08-Oct-17 16:35 35.425485 -119.044657 268 480ft 0kts
08-Oct-17 16:36 35.425485 -119.044657 268 480ft 0kts
08-Oct-17 16:37 35.428944 -119.050304 314 483ft 67kts
08-Oct-17 16:38 35.444762 -119.066779 315 1250ft 82kts
08-Oct-17 16:39 35.462955 -119.066220 67 2025ft 99kts
08-Oct-17 16:40 35.447302 -119.037700 142 2666ft 102kts
08-Oct-17 16:41 35.426609 -119.013178 128 3280ft 104kts
08-Oct-17 16:42 35.409817 -118.985048 118 3932ft 105kts
08-Oct-17 16:43 35.394780 -118.959739 136 4732ft 88kts
08-Oct-17 16:44 35.376324 -118.939144 144 5375ft 96kts
08-Oct-17 16:45 35.365492 -118.913134 109 6036ft 92kts
08-Oct-17 16:46 35.354282 -118.884364 124 6574ft 101kts
08-Oct-17 16:47 35.340858 -118.855199 113 7169ft 96kts
08-Oct-17 16:48 35.329388 -118.824690 118 7544ft 111kts
08-Oct-17 16:49 35.316360 -118.789728 110 7542ft 117kts
08-Oct-17 16:50 35.304824 -118.752720 106 7543ft 119kts
08-Oct-17 16:51 35.292633 -118.714890 113 7562ft 120kts
08-Oct-17 16:52 35.278488 -118.678473 115 7581ft 121kts
08-Oct-17 16:53 35.263305 -118.641367 115 7599ft 122kts
08-Oct-17 16:54 35.247851 -118.604231 114 7618ft 123kts
08-Oct-17 16:55 35.232301 -118.566810 115 7636ft 123kts
08-Oct-17 16:56 35.216603 -118.529121 115 7642ft 125kts
08-Oct-17 16:57 35.200873 -118.491333 115 7644ft 124kts
08-Oct-17 16:58 35.184984 -118.453343 114 7640ft 125kts
08-Oct-17 16:59 35.169316 -118.415490 115 7642ft 125kts
08-Oct-17 17:00 35.153593 -118.377743 115 7643ft 124kts
08-Oct-17 17:01 35.139353 -118.344318 118 7516ft 121kts
08-Oct-17 17:02 35.122598 -118.308544 112 6839ft 123kts
08-Oct-17 17:03 35.106501 -118.270601 116 6064ft 128kts
08-Oct-17 17:05 35.089995 -118.231101 114 5179ft 134kts
08-Oct-17 17:06 35.073411 -118.188909 118 4092ft 137kts
08-Oct-17 17:07 35.064427 -118.149103 76 3672ft 102kts
08-Oct-17 17:08 35.059125 -118.127041 262 3397ft 62kts
08-Oct-17 17:09 35.059114 -118.144417 278 2742ft 46kts
08-Oct-17 17:10 35.057475 -118.156274 306 3009ft 36kts
08-Oct-17 17:11 35.058006 -118.170451 274 3311ft 58kts
08-Oct-17 17:12 35.043809 -118.154482 88 3808ft 114kts
08-Oct-17 17:13 35.043897 -118.114614 55 3747ft 105kts
08-Oct-17 17:14 35.058827 -118.118746 278 3172ft 73kts
08-Oct-17 17:14 35.059173 -118.138933 275 2840ft 68kts
08-Oct-17 17:16 35.059225 -118.156353 269 2765ft 29kts
08-Oct-17 17:16 35.058347 -118.157803 180 2766ft 0kts
08-Oct-17 17:18 35.058294 -118.157803 180 2766ft 5kts
08-Oct-17 17:19 35.057237 -118.157740 265 2764ft 0kts
08-Oct-17 17:20 35.057236 -118.157769 266 2764ft 0kts

Navigation Log

Ident Type
1. KBFL Airport
2. KMHV Airport